sensor_id;sensor_type;location;lat;lon;timestamp;temperature;humidity
17728;DHT22;8984;49.268;12.302;2022-08-01T00:02:03;21.80;98.80
17728;DHT22;8984;49.268;12.302;2022-08-01T00:04:32;21.80;99.30
17728;DHT22;8984;49.268;12.302;2022-08-01T00:06:59;21.70;99.60
17728;DHT22;8984;49.268;12.302;2022-08-01T00:09:26;21.60;99.50
17728;DHT22;8984;49.268;12.302;2022-08-01T00:11:52;21.60;99.80
17728;DHT22;8984;49.268;12.302;2022-08-01T00:14:21;21.50;99.90
17728;DHT22;8984;49.268;12.302;2022-08-01T00:16:47;21.50;99.90
17728;DHT22;8984;49.268;12.302;2022-08-01T00:19:14;21.40;99.80
17728;DHT22;8984;49.268;12.302;2022-08-01T00:21:41;21.40;99.60
17728;DHT22;8984;49.268;12.302;2022-08-01T00:24:09;21.40;99.80
17728;DHT22;8984;49.268;12.302;2022-08-01T00:26:38;21.30;99.90
17728;DHT22;8984;49.268;12.302;2022-08-01T00:29:05;21.30;99.90
17728;DHT22;8984;49.268;12.302;2022-08-01T00:31:33;21.30;99.90
17728;DHT22;8984;49.268;12.302;2022-08-01T00:34:00;21.30;99.90
17728;DHT22;8984;49.268;12.302;2022-08-01T00:36:27;21.20;99.90
17728;DHT22;8984;49.268;12.302;2022-08-01T00:38:54;21.10;99.90
17728;DHT22;8984;49.268;12.302;2022-08-01T00:41:21;21.10;99.90
17728;DHT22;8984;49.268;12.302;2022-08-01T00:43:47;21.10;99.90
17728;DHT22;8984;49.268;12.302;2022-08-01T00:46:14;21.00;99.90
17728;DHT22;8984;49.268;12.302;2022-08-01T00:48:42;21.00;99.90
17728;DHT22;8984;49.268;12.302;2022-08-01T00:51:10;21.00;99.90
17728;DHT22;8984;49.268;12.302;2022-08-01T00:53:37;20.90;99.90
17728;DHT22;8984;49.268;12.302;2022-08-01T00:56:04;20.90;99.90
17728;DHT22;8984;49.268;12.302;2022-08-01T00:58:31;20.80;99.90
17728;DHT22;8984;49.268;12.302;2022-08-01T01:00:59;20.80;99.90
17728;DHT22;8984;49.268;12.302;2022-08-01T01:03:27;20.80;99.90
17728;DHT22;8984;49.268;12.302;2022-08-01T01:06:09;20.70;99.90
17728;DHT22;8984;49.268;12.302;2022-08-01T01:08:41;20.70;99.90
17728;DHT22;8984;49.268;12.302;2022-08-01T01:11:16;20.60;99.90
17728;DHT22;8984;49.268;12.302;2022-08-01T01:14:00;20.70;99.90
17728;DHT22;8984;49.268;12.302;2022-08-01T01:16:27;20.60;99.90
17728;DHT22;8984;49.268;12.302;2022-08-01T01:18:59;20.60;99.90
17728;DHT22;8984;49.268;12.302;2022-08-01T01:21:39;20.50;99.90
17728;DHT22;8984;49.268;12.302;2022-08-01T01:24:19;20.60;99.90
17728;DHT22;8984;49.268;12.302;2022-08-01T01:26:53;20.50;99.90
17728;DHT22;8984;49.268;12.302;2022-08-01T01:29:27;20.50;99.90
17728;DHT22;8984;49.268;12.302;2022-08-01T01:31:57;20.50;99.90
17728;DHT22;8984;49.268;12.302;2022-08-01T01:34:26;20.40;99.90
17728;DHT22;8984;49.268;12.302;2022-08-01T01:36:56;20.30;99.90
17728;DHT22;8984;49.268;12.302;2022-08-01T01:39:25;20.20;99.90
17728;DHT22;8984;49.268;12.302;2022-08-01T01:41:54;20.20;99.90
17728;DHT22;8984;49.268;12.302;2022-08-01T01:44:23;20.20;99.90
17728;DHT22;8984;49.268;12.302;2022-08-01T01:46:52;20.20;99.90
17728;DHT22;8984;49.268;12.302;2022-08-01T01:49:21;20.20;99.90
17728;DHT22;8984;49.268;12.302;2022-08-01T01:51:48;20.20;99.90
17728;DHT22;8984;49.268;12.302;2022-08-01T01:54:17;20.10;99.90
17728;DHT22;8984;49.268;12.302;2022-08-01T01:56:45;20.00;99.90
17728;DHT22;8984;49.268;12.302;2022-08-01T01:59:18;20.00;99.90
17728;DHT22;8984;49.268;12.302;2022-08-01T02:01:49;20.00;99.90
17728;DHT22;8984;49.268;12.302;2022-08-01T02:04:19;20.00;99.90
17728;DHT22;8984;49.268;12.302;2022-08-01T02:06:47;20.00;99.90
17728;DHT22;8984;49.268;12.302;2022-08-01T02:09:18;20.00;99.90
17728;DHT22;8984;49.268;12.302;2022-08-01T02:11:47;19.90;99.90
17728;DHT22;8984;49.268;12.302;2022-08-01T02:14:14;19.90;99.90
17728;DHT22;8984;49.268;12.302;2022-08-01T02:16:45;19.80;99.90
17728;DHT22;8984;49.268;12.302;2022-08-01T02:19:17;19.80;99.90
17728;DHT22;8984;49.268;12.302;2022-08-01T02:21:47;19.80;99.90
17728;DHT22;8984;49.268;12.302;2022-08-01T02:24:19;19.80;99.90
17728;DHT22;8984;49.268;12.302;2022-08-01T02:26:51;19.70;99.90
17728;DHT22;8984;49.268;12.302;2022-08-01T02:32:06;19.70;99.90
17728;DHT22;8984;49.268;12.302;2022-08-01T02:34:36;19.60;99.90
17728;DHT22;8984;49.268;12.302;2022-08-01T02:37:03;19.60;99.90
17728;DHT22;8984;49.268;12.302;2022-08-01T02:39:32;19.60;99.90
17728;DHT22;8984;49.268;12.302;2022-08-01T02:42:06;19.50;99.90
17728;DHT22;8984;49.268;12.302;2022-08-01T02:44:37;19.50;99.90
17728;DHT22;8984;49.268;12.302;2022-08-01T02:47:05;19.50;99.90
17728;DHT22;8984;49.268;12.302;2022-08-01T02:49:37;19.60;99.90
17728;DHT22;8984;49.268;12.302;2022-08-01T02:52:07;19.60;99.90
17728;DHT22;8984;49.268;12.302;2022-08-01T02:54:36;19.50;99.90
17728;DHT22;8984;49.268;12.302;2022-08-01T02:57:04;19.50;99.90
17728;DHT22;8984;49.268;12.302;2022-08-01T02:59:34;19.50;99.90
17728;DHT22;8984;49.268;12.302;2022-08-01T03:02:03;19.50;99.90
17728;DHT22;8984;49.268;12.302;2022-08-01T03:04:33;19.50;99.90
17728;DHT22;8984;49.268;12.302;2022-08-01T03:07:04;19.50;99.90
17728;DHT22;8984;49.268;12.302;2022-08-01T03:09:35;19.60;99.90
17728;DHT22;8984;49.268;12.302;2022-08-01T03:12:06;19.60;99.90
17728;DHT22;8984;49.268;12.302;2022-08-01T03:14:36;19.60;99.90
17728;DHT22;8984;49.268;12.302;2022-08-01T03:17:06;19.50;99.90
17728;DHT22;8984;49.268;12.302;2022-08-01T03:19:34;19.50;99.90
17728;DHT22;8984;49.268;12.302;2022-08-01T03:22:07;19.60;99.90
17728;DHT22;8984;49.268;12.302;2022-08-01T03:24:36;19.60;99.90
17728;DHT22;8984;49.268;12.302;2022-08-01T03:27:04;19.50;99.90
17728;DHT22;8984;49.268;12.302;2022-08-01T03:29:33;19.50;99.90
17728;DHT22;8984;49.268;12.302;2022-08-01T03:32:00;19.50;99.90
17728;DHT22;8984;49.268;12.302;2022-08-01T03:34:28;19.60;99.90
17728;DHT22;8984;49.268;12.302;2022-08-01T03:36:59;19.60;99.90
17728;DHT22;8984;49.268;12.302;2022-08-01T03:39:31;19.60;99.90
17728;DHT22;8984;49.268;12.302;2022-08-01T03:42:05;19.50;99.90
17728;DHT22;8984;49.268;12.302;2022-08-01T03:44:33;19.50;99.90
17728;DHT22;8984;49.268;12.302;2022-08-01T03:47:06;19.50;99.90
17728;DHT22;8984;49.268;12.302;2022-08-01T03:49:37;19.50;99.90
17728;DHT22;8984;49.268;12.302;2022-08-01T03:52:08;19.50;99.90
17728;DHT22;8984;49.268;12.302;2022-08-01T03:54:40;19.50;99.90
17728;DHT22;8984;49.268;12.302;2022-08-01T03:57:09;19.50;99.90
17728;DHT22;8984;49.268;12.302;2022-08-01T03:59:37;19.50;99.90
17728;DHT22;8984;49.268;12.302;2022-08-01T04:02:06;19.50;99.90
17728;DHT22;8984;49.268;12.302;2022-08-01T04:04:34;19.60;99.90
17728;DHT22;8984;49.268;12.302;2022-08-01T04:07:01;19.60;99.90
17728;DHT22;8984;49.268;12.302;2022-08-01T04:09:32;19.70;99.90
17728;DHT22;8984;49.268;12.302;2022-08-01T04:12:00;19.70;99.90
17728;DHT22;8984;49.268;12.302;2022-08-01T04:14:28;19.80;99.90
17728;DHT22;8984;49.268;12.302;2022-08-01T04:16:55;19.80;99.90
17728;DHT22;8984;49.268;12.302;2022-08-01T04:19:22;20.00;99.90
17728;DHT22;8984;49.268;12.302;2022-08-01T04:21:51;20.50;99.90
17728;DHT22;8984;49.268;12.302;2022-08-01T04:24:19;21.20;99.90
17728;DHT22;8984;49.268;12.302;2022-08-01T04:26:47;22.00;99.90
17728;DHT22;8984;49.268;12.302;2022-08-01T04:29:18;22.80;99.90
17728;DHT22;8984;49.268;12.302;2022-08-01T04:31:48;23.50;99.90
17728;DHT22;8984;49.268;12.302;2022-08-01T04:34:19;24.20;99.90
17728;DHT22;8984;49.268;12.302;2022-08-01T04:36:48;24.80;99.90
17728;DHT22;8984;49.268;12.302;2022-08-01T04:39:16;25.40;99.90
17728;DHT22;8984;49.268;12.302;2022-08-01T04:41:47;26.00;99.30
17728;DHT22;8984;49.268;12.302;2022-08-01T04:44:14;26.60;98.00
17728;DHT22;8984;49.268;12.302;2022-08-01T04:46:43;27.20;96.90
17728;DHT22;8984;49.268;12.302;2022-08-01T04:49:13;27.80;96.00
17728;DHT22;8984;49.268;12.302;2022-08-01T04:51:50;28.30;94.80
17728;DHT22;8984;49.268;12.302;2022-08-01T04:54:17;28.90;93.60
17728;DHT22;8984;49.268;12.302;2022-08-01T04:56:44;29.00;93.20
17728;DHT22;8984;49.268;12.302;2022-08-01T04:59:12;29.20;92.70
17728;DHT22;8984;49.268;12.302;2022-08-01T05:01:57;29.10;92.80
17728;DHT22;8984;49.268;12.302;2022-08-01T05:04:24;28.80;93.10
17728;DHT22;8984;49.268;12.302;2022-08-01T05:06:51;28.30;93.50
17728;DHT22;8984;49.268;12.302;2022-08-01T05:09:18;27.80;93.80
17728;DHT22;8984;49.268;12.302;2022-08-01T05:11:46;27.20;94.90
17728;DHT22;8984;49.268;12.302;2022-08-01T05:14:12;26.90;95.20
17728;DHT22;8984;49.268;12.302;2022-08-01T05:16:39;27.00;95.30
17728;DHT22;8984;49.268;12.302;2022-08-01T05:19:08;27.40;94.50
17728;DHT22;8984;49.268;12.302;2022-08-01T05:21:35;27.90;93.90
17728;DHT22;8984;49.268;12.302;2022-08-01T05:24:03;28.30;93.30
17728;DHT22;8984;49.268;12.302;2022-08-01T05:26:30;28.60;92.70
17728;DHT22;8984;49.268;12.302;2022-08-01T05:28:57;28.80;92.30
17728;DHT22;8984;49.268;12.302;2022-08-01T05:31:24;29.00;91.40
17728;DHT22;8984;49.268;12.302;2022-08-01T05:33:50;29.30;90.80
17728;DHT22;8984;49.268;12.302;2022-08-01T05:36:18;29.40;90.30
17728;DHT22;8984;49.268;12.302;2022-08-01T05:38:45;29.50;90.10
17728;DHT22;8984;49.268;12.302;2022-08-01T05:41:12;29.20;89.90
17728;DHT22;8984;49.268;12.302;2022-08-01T05:43:39;29.20;90.00
17728;DHT22;8984;49.268;12.302;2022-08-01T05:46:06;29.20;89.50
17728;DHT22;8984;49.268;12.302;2022-08-01T05:48:32;29.20;90.60
17728;DHT22;8984;49.268;12.302;2022-08-01T05:50:59;29.30;90.00
17728;DHT22;8984;49.268;12.302;2022-08-01T05:53:27;29.30;90.10
17728;DHT22;8984;49.268;12.302;2022-08-01T05:55:55;29.40;89.70
17728;DHT22;8984;49.268;12.302;2022-08-01T05:58:22;29.60;89.70
17728;DHT22;8984;49.268;12.302;2022-08-01T06:00:48;29.70;89.40
17728;DHT22;8984;49.268;12.302;2022-08-01T06:03:15;29.70;88.00
17728;DHT22;8984;49.268;12.302;2022-08-01T06:05:42;29.50;88.20
17728;DHT22;8984;49.268;12.302;2022-08-01T06:08:08;29.20;87.80
17728;DHT22;8984;49.268;12.302;2022-08-01T06:10:37;29.00;88.30
17728;DHT22;8984;49.268;12.302;2022-08-01T06:13:03;29.00;88.50
17728;DHT22;8984;49.268;12.302;2022-08-01T06:15:30;28.90;88.80
17728;DHT22;8984;49.268;12.302;2022-08-01T06:17:57;28.70;88.80
17728;DHT22;8984;49.268;12.302;2022-08-01T06:20:24;28.10;89.70
17728;DHT22;8984;49.268;12.302;2022-08-01T06:22:51;28.10;90.80
17728;DHT22;8984;49.268;12.302;2022-08-01T06:25:18;27.80;91.20
17728;DHT22;8984;49.268;12.302;2022-08-01T06:27:46;27.70;91.00
17728;DHT22;8984;49.268;12.302;2022-08-01T06:30:13;27.40;91.20
17728;DHT22;8984;49.268;12.302;2022-08-01T06:32:40;27.40;91.80
17728;DHT22;8984;49.268;12.302;2022-08-01T06:35:07;27.10;91.80
17728;DHT22;8984;49.268;12.302;2022-08-01T06:37:34;27.30;92.00
17728;DHT22;8984;49.268;12.302;2022-08-01T06:40:01;27.70;91.90
17728;DHT22;8984;49.268;12.302;2022-08-01T06:42:28;27.90;91.50
17728;DHT22;8984;49.268;12.302;2022-08-01T06:44:58;28.10;91.10
17728;DHT22;8984;49.268;12.302;2022-08-01T06:47:25;28.00;90.80
17728;DHT22;8984;49.268;12.302;2022-08-01T06:49:51;27.80;91.30
17728;DHT22;8984;49.268;12.302;2022-08-01T06:52:18;27.70;91.10
17728;DHT22;8984;49.268;12.302;2022-08-01T06:54:45;27.40;91.30
17728;DHT22;8984;49.268;12.302;2022-08-01T06:57:12;27.40;92.30
17728;DHT22;8984;49.268;12.302;2022-08-01T06:59:38;27.40;92.00
17728;DHT22;8984;49.268;12.302;2022-08-01T07:02:07;27.50;92.20
17728;DHT22;8984;49.268;12.302;2022-08-01T07:04:34;27.70;91.90
17728;DHT22;8984;49.268;12.302;2022-08-01T07:07:01;27.90;91.90
17728;DHT22;8984;49.268;12.302;2022-08-01T07:09:28;27.70;91.80
17728;DHT22;8984;49.268;12.302;2022-08-01T07:11:55;27.50;91.80
17728;DHT22;8984;49.268;12.302;2022-08-01T07:14:22;27.70;92.10
17728;DHT22;8984;49.268;12.302;2022-08-01T07:16:49;27.60;92.20
17728;DHT22;8984;49.268;12.302;2022-08-01T07:19:18;27.80;91.90
17728;DHT22;8984;49.268;12.302;2022-08-01T07:21:45;27.80;91.40
17728;DHT22;8984;49.268;12.302;2022-08-01T07:24:13;28.20;91.40
17728;DHT22;8984;49.268;12.302;2022-08-01T07:26:42;28.30;90.80
17728;DHT22;8984;49.268;12.302;2022-08-01T07:29:09;28.30;90.80
17728;DHT22;8984;49.268;12.302;2022-08-01T07:31:35;28.20;90.90
17728;DHT22;8984;49.268;12.302;2022-08-01T07:34:02;28.10;90.40
17728;DHT22;8984;49.268;12.302;2022-08-01T07:36:30;27.80;90.60
17728;DHT22;8984;49.268;12.302;2022-08-01T07:38:57;28.00;91.30
17728;DHT22;8984;49.268;12.302;2022-08-01T07:41:24;28.10;90.70
17728;DHT22;8984;49.268;12.302;2022-08-01T07:43:51;27.60;90.40
17728;DHT22;8984;49.268;12.302;2022-08-01T07:46:17;27.90;90.60
17728;DHT22;8984;49.268;12.302;2022-08-01T07:48:44;28.00;90.90
17728;DHT22;8984;49.268;12.302;2022-08-01T07:51:11;28.10;90.70
17728;DHT22;8984;49.268;12.302;2022-08-01T07:53:39;28.20;90.50
17728;DHT22;8984;49.268;12.302;2022-08-01T07:56:06;28.10;90.60
17728;DHT22;8984;49.268;12.302;2022-08-01T07:58:33;28.10;90.70
17728;DHT22;8984;49.268;12.302;2022-08-01T08:01:00;28.00;90.60
17728;DHT22;8984;49.268;12.302;2022-08-01T08:03:27;28.10;90.80
17728;DHT22;8984;49.268;12.302;2022-08-01T08:05:54;28.20;90.70
17728;DHT22;8984;49.268;12.302;2022-08-01T08:08:20;28.80;90.50
17728;DHT22;8984;49.268;12.302;2022-08-01T08:10:49;29.00;89.80
17728;DHT22;8984;49.268;12.302;2022-08-01T08:13:15;28.90;89.60
17728;DHT22;8984;49.268;12.302;2022-08-01T08:15:42;29.20;89.10
17728;DHT22;8984;49.268;12.302;2022-08-01T08:18:09;29.00;89.20
17728;DHT22;8984;49.268;12.302;2022-08-01T08:20:36;29.20;89.00
17728;DHT22;8984;49.268;12.302;2022-08-01T08:23:03;29.40;88.40
17728;DHT22;8984;49.268;12.302;2022-08-01T08:25:51;29.50;88.20
17728;DHT22;8984;49.268;12.302;2022-08-01T08:28:18;29.50;88.30
17728;DHT22;8984;49.268;12.302;2022-08-01T08:30:44;29.60;88.90
17728;DHT22;8984;49.268;12.302;2022-08-01T08:33:11;29.40;87.60
17728;DHT22;8984;49.268;12.302;2022-08-01T08:35:39;29.30;87.60
17728;DHT22;8984;49.268;12.302;2022-08-01T08:38:06;29.40;87.50
17728;DHT22;8984;49.268;12.302;2022-08-01T08:40:35;29.40;88.20
17728;DHT22;8984;49.268;12.302;2022-08-01T08:43:04;29.40;88.30
17728;DHT22;8984;49.268;12.302;2022-08-01T08:45:31;29.10;87.80
17728;DHT22;8984;49.268;12.302;2022-08-01T08:47:58;28.80;88.30
17728;DHT22;8984;49.268;12.302;2022-08-01T08:50:26;29.00;88.20
17728;DHT22;8984;49.268;12.302;2022-08-01T08:52:53;29.00;88.30
17728;DHT22;8984;49.268;12.302;2022-08-01T08:55:22;29.00;87.70
17728;DHT22;8984;49.268;12.302;2022-08-01T08:57:50;29.10;88.20
17728;DHT22;8984;49.268;12.302;2022-08-01T09:00:19;29.10;88.20
17728;DHT22;8984;49.268;12.302;2022-08-01T09:02:47;29.00;88.30
17728;DHT22;8984;49.268;12.302;2022-08-01T09:05:15;28.90;88.80
17728;DHT22;8984;49.268;12.302;2022-08-01T09:07:44;28.80;86.40
17728;DHT22;8984;49.268;12.302;2022-08-01T09:10:11;28.80;86.60
17728;DHT22;8984;49.268;12.302;2022-08-01T09:12:37;28.90;86.50
17728;DHT22;8984;49.268;12.302;2022-08-01T09:15:05;28.80;85.60
17728;DHT22;8984;49.268;12.302;2022-08-01T09:17:40;28.90;85.50
17728;DHT22;8984;49.268;12.302;2022-08-01T09:20:08;29.00;84.90
17728;DHT22;8984;49.268;12.302;2022-08-01T09:22:48;28.90;85.30
17728;DHT22;8984;49.268;12.302;2022-08-01T09:25:15;28.70;84.90
17728;DHT22;8984;49.268;12.302;2022-08-01T09:27:41;28.60;86.00
17728;DHT22;8984;49.268;12.302;2022-08-01T09:30:11;28.60;85.70
17728;DHT22;8984;49.268;12.302;2022-08-01T09:32:55;28.50;87.00
17728;DHT22;8984;49.268;12.302;2022-08-01T09:35:24;28.60;86.10
17728;DHT22;8984;49.268;12.302;2022-08-01T09:37:51;28.50;85.20
17728;DHT22;8984;49.268;12.302;2022-08-01T09:40:44;28.60;84.30
17728;DHT22;8984;49.268;12.302;2022-08-01T09:43:12;28.90;84.50
17728;DHT22;8984;49.268;12.302;2022-08-01T09:45:39;29.20;84.10
17728;DHT22;8984;49.268;12.302;2022-08-01T09:48:09;29.10;83.50
17728;DHT22;8984;49.268;12.302;2022-08-01T09:50:41;29.10;84.00
17728;DHT22;8984;49.268;12.302;2022-08-01T09:53:08;28.80;85.50
17728;DHT22;8984;49.268;12.302;2022-08-01T09:55:36;28.80;85.80
17728;DHT22;8984;49.268;12.302;2022-08-01T09:58:03;28.50;85.60
17728;DHT22;8984;49.268;12.302;2022-08-01T10:00:31;28.40;86.50
17728;DHT22;8984;49.268;12.302;2022-08-01T10:02:59;28.30;86.50
17728;DHT22;8984;49.268;12.302;2022-08-01T10:05:34;28.10;86.50
17728;DHT22;8984;49.268;12.302;2022-08-01T10:08:08;28.00;86.40
17728;DHT22;8984;49.268;12.302;2022-08-01T10:10:36;28.10;86.90
17728;DHT22;8984;49.268;12.302;2022-08-01T10:13:03;28.40;86.90
17728;DHT22;8984;49.268;12.302;2022-08-01T10:15:31;28.60;87.00
17728;DHT22;8984;49.268;12.302;2022-08-01T10:18:01;28.70;85.40
17728;DHT22;8984;49.268;12.302;2022-08-01T10:20:30;28.70;85.60
17728;DHT22;8984;49.268;12.302;2022-08-01T10:23:01;29.00;84.30
17728;DHT22;8984;49.268;12.302;2022-08-01T10:25:29;29.10;83.50
17728;DHT22;8984;49.268;12.302;2022-08-01T10:28:02;29.40;83.80
17728;DHT22;8984;49.268;12.302;2022-08-01T10:30:31;30.00;83.50
17728;DHT22;8984;49.268;12.302;2022-08-01T10:32:58;29.90;82.70
17728;DHT22;8984;49.268;12.302;2022-08-01T10:35:29;30.00;82.20
17728;DHT22;8984;49.268;12.302;2022-08-01T10:37:59;30.10;81.70
17728;DHT22;8984;49.268;12.302;2022-08-01T10:40:26;30.20;82.00
17728;DHT22;8984;49.268;12.302;2022-08-01T10:42:56;30.50;81.70
17728;DHT22;8984;49.268;12.302;2022-08-01T10:45:24;30.20;80.40
17728;DHT22;8984;49.268;12.302;2022-08-01T10:47:56;30.20;80.80
17728;DHT22;8984;49.268;12.302;2022-08-01T10:50:27;30.00;81.20
17728;DHT22;8984;49.268;12.302;2022-08-01T10:53:10;30.10;81.50
17728;DHT22;8984;49.268;12.302;2022-08-01T10:55:48;30.60;81.10
17728;DHT22;8984;49.268;12.302;2022-08-01T10:58:20;30.10;80.30
17728;DHT22;8984;49.268;12.302;2022-08-01T11:00:47;29.90;79.90
17728;DHT22;8984;49.268;12.302;2022-08-01T11:03:14;30.10;79.80
17728;DHT22;8984;49.268;12.302;2022-08-01T11:05:42;30.00;79.90
17728;DHT22;8984;49.268;12.302;2022-08-01T11:08:21;30.30;79.70
17728;DHT22;8984;49.268;12.302;2022-08-01T11:10:59;30.40;77.50
17728;DHT22;8984;49.268;12.302;2022-08-01T11:16:27;31.00;79.60
17728;DHT22;8984;49.268;12.302;2022-08-01T11:18:55;31.00;76.40
17728;DHT22;8984;49.268;12.302;2022-08-01T11:21:22;31.40;75.70
17728;DHT22;8984;49.268;12.302;2022-08-01T11:23:53;31.40;75.90
17728;DHT22;8984;49.268;12.302;2022-08-01T11:26:21;31.10;75.40
17728;DHT22;8984;49.268;12.302;2022-08-01T11:29:10;31.10;76.60
17728;DHT22;8984;49.268;12.302;2022-08-01T11:31:38;30.70;75.20
17728;DHT22;8984;49.268;12.302;2022-08-01T11:34:05;30.60;77.40
17728;DHT22;8984;49.268;12.302;2022-08-01T11:36:34;30.60;77.60
17728;DHT22;8984;49.268;12.302;2022-08-01T11:39:20;30.50;77.20
17728;DHT22;8984;49.268;12.302;2022-08-01T11:41:48;30.70;77.80
17728;DHT22;8984;49.268;12.302;2022-08-01T11:44:22;30.60;77.40
17728;DHT22;8984;49.268;12.302;2022-08-01T11:47:02;30.40;77.00
17728;DHT22;8984;49.268;12.302;2022-08-01T11:49:47;30.30;78.20
17728;DHT22;8984;49.268;12.302;2022-08-01T11:52:24;30.00;78.00
17728;DHT22;8984;49.268;12.302;2022-08-01T11:54:55;29.80;78.70
17728;DHT22;8984;49.268;12.302;2022-08-01T11:57:23;29.90;79.20
17728;DHT22;8984;49.268;12.302;2022-08-01T11:59:52;29.70;81.00
17728;DHT22;8984;49.268;12.302;2022-08-01T12:02:21;29.40;81.20
17728;DHT22;8984;49.268;12.302;2022-08-01T12:04:51;29.30;80.80
17728;DHT22;8984;49.268;12.302;2022-08-01T12:07:19;29.20;81.00
17728;DHT22;8984;49.268;12.302;2022-08-01T12:09:46;29.20;81.80
17728;DHT22;8984;49.268;12.302;2022-08-01T12:12:17;29.40;81.20
17728;DHT22;8984;49.268;12.302;2022-08-01T12:14:45;29.40;80.80
17728;DHT22;8984;49.268;12.302;2022-08-01T12:17:20;29.00;80.40
17728;DHT22;8984;49.268;12.302;2022-08-01T12:19:49;29.00;81.50
17728;DHT22;8984;49.268;12.302;2022-08-01T12:22:16;29.20;80.90
17728;DHT22;8984;49.268;12.302;2022-08-01T12:24:42;29.20;80.30
17728;DHT22;8984;49.268;12.302;2022-08-01T12:27:10;29.40;80.50
17728;DHT22;8984;49.268;12.302;2022-08-01T12:29:40;29.60;80.50
17728;DHT22;8984;49.268;12.302;2022-08-01T12:32:25;29.50;80.70
17728;DHT22;8984;49.268;12.302;2022-08-01T12:34:52;29.70;80.70
17728;DHT22;8984;49.268;12.302;2022-08-01T12:37:20;29.40;80.10
17728;DHT22;8984;49.268;12.302;2022-08-01T12:39:47;29.70;80.20
17728;DHT22;8984;49.268;12.302;2022-08-01T12:42:14;29.80;79.40
17728;DHT22;8984;49.268;12.302;2022-08-01T12:44:46;29.60;80.20
17728;DHT22;8984;49.268;12.302;2022-08-01T12:47:15;29.80;80.00
17728;DHT22;8984;49.268;12.302;2022-08-01T12:49:43;30.10;79.90
17728;DHT22;8984;49.268;12.302;2022-08-01T12:52:11;30.00;78.80
17728;DHT22;8984;49.268;12.302;2022-08-01T12:55:00;30.10;79.20
17728;DHT22;8984;49.268;12.302;2022-08-01T12:57:27;30.40;78.90
17728;DHT22;8984;49.268;12.302;2022-08-01T13:00:16;29.90;78.80
17728;DHT22;8984;49.268;12.302;2022-08-01T13:02:45;30.20;77.90
17728;DHT22;8984;49.268;12.302;2022-08-01T13:05:12;30.00;77.80
17728;DHT22;8984;49.268;12.302;2022-08-01T13:07:48;30.20;77.90
17728;DHT22;8984;49.268;12.302;2022-08-01T13:10:24;30.40;77.40
17728;DHT22;8984;49.268;12.302;2022-08-01T13:12:53;30.70;77.10
17728;DHT22;8984;49.268;12.302;2022-08-01T13:15:24;30.70;77.10
17728;DHT22;8984;49.268;12.302;2022-08-01T13:17:52;30.80;75.30
17728;DHT22;8984;49.268;12.302;2022-08-01T13:20:29;30.70;76.50
17728;DHT22;8984;49.268;12.302;2022-08-01T13:23:13;31.10;76.10
17728;DHT22;8984;49.268;12.302;2022-08-01T13:25:50;31.20;75.10
17728;DHT22;8984;49.268;12.302;2022-08-01T13:28:19;31.50;75.10
17728;DHT22;8984;49.268;12.302;2022-08-01T13:30:59;31.80;74.50
17728;DHT22;8984;49.268;12.302;2022-08-01T13:33:28;32.00;72.80
17728;DHT22;8984;49.268;12.302;2022-08-01T13:35:56;32.00;73.20
17728;DHT22;8984;49.268;12.302;2022-08-01T13:38:22;32.20;73.00
17728;DHT22;8984;49.268;12.302;2022-08-01T13:41:03;32.30;72.30
17728;DHT22;8984;49.268;12.302;2022-08-01T13:43:30;32.40;73.20
17728;DHT22;8984;49.268;12.302;2022-08-01T13:45:58;32.30;72.80
17728;DHT22;8984;49.268;12.302;2022-08-01T13:48:25;32.60;72.50
17728;DHT22;8984;49.268;12.302;2022-08-01T13:50:52;32.60;71.00
17728;DHT22;8984;49.268;12.302;2022-08-01T13:53:18;32.30;70.70
17728;DHT22;8984;49.268;12.302;2022-08-01T13:55:45;32.40;70.40
17728;DHT22;8984;49.268;12.302;2022-08-01T13:58:12;32.30;70.50
17728;DHT22;8984;49.268;12.302;2022-08-01T14:00:39;32.20;71.20
17728;DHT22;8984;49.268;12.302;2022-08-01T14:03:07;32.50;71.40
17728;DHT22;8984;49.268;12.302;2022-08-01T14:05:35;32.60;70.70
17728;DHT22;8984;49.268;12.302;2022-08-01T14:08:02;32.50;70.10
17728;DHT22;8984;49.268;12.302;2022-08-01T14:10:29;32.70;70.80
17728;DHT22;8984;49.268;12.302;2022-08-01T14:12:56;32.80;69.80
17728;DHT22;8984;49.268;12.302;2022-08-01T14:15:23;32.80;70.20
17728;DHT22;8984;49.268;12.302;2022-08-01T14:17:51;32.50;69.10
17728;DHT22;8984;49.268;12.302;2022-08-01T14:20:19;32.60;69.30
17728;DHT22;8984;49.268;12.302;2022-08-01T14:22:46;32.40;69.70
17728;DHT22;8984;49.268;12.302;2022-08-01T14:25:12;32.10;70.30
17728;DHT22;8984;49.268;12.302;2022-08-01T14:27:39;31.20;71.90
17728;DHT22;8984;49.268;12.302;2022-08-01T14:30:08;31.40;72.10
17728;DHT22;8984;49.268;12.302;2022-08-01T14:32:35;30.80;72.20
17728;DHT22;8984;49.268;12.302;2022-08-01T14:35:03;30.80;72.80
17728;DHT22;8984;49.268;12.302;2022-08-01T14:37:31;30.70;73.30
17728;DHT22;8984;49.268;12.302;2022-08-01T14:39:59;30.50;74.30
17728;DHT22;8984;49.268;12.302;2022-08-01T14:42:29;30.60;75.00
17728;DHT22;8984;49.268;12.302;2022-08-01T14:44:56;31.00;74.60
17728;DHT22;8984;49.268;12.302;2022-08-01T14:47:23;30.70;74.40
17728;DHT22;8984;49.268;12.302;2022-08-01T14:49:50;30.30;75.20
17728;DHT22;8984;49.268;12.302;2022-08-01T14:52:17;30.20;75.50
17728;DHT22;8984;49.268;12.302;2022-08-01T14:54:46;30.10;75.70
17728;DHT22;8984;49.268;12.302;2022-08-01T14:57:13;30.30;75.50
17728;DHT22;8984;49.268;12.302;2022-08-01T14:59:43;30.50;74.90
17728;DHT22;8984;49.268;12.302;2022-08-01T15:02:10;30.80;75.20
17728;DHT22;8984;49.268;12.302;2022-08-01T15:04:38;30.80;74.80
17728;DHT22;8984;49.268;12.302;2022-08-01T15:07:05;31.00;74.80
17728;DHT22;8984;49.268;12.302;2022-08-01T15:09:32;31.10;74.50
17728;DHT22;8984;49.268;12.302;2022-08-01T15:12:00;31.20;73.80
17728;DHT22;8984;49.268;12.302;2022-08-01T15:14:26;31.20;73.90
17728;DHT22;8984;49.268;12.302;2022-08-01T15:17:12;31.40;74.40
17728;DHT22;8984;49.268;12.302;2022-08-01T15:19:39;31.10;74.30
17728;DHT22;8984;49.268;12.302;2022-08-01T15:22:05;31.00;74.60
17728;DHT22;8984;49.268;12.302;2022-08-01T15:24:32;31.30;74.80
17728;DHT22;8984;49.268;12.302;2022-08-01T15:27:00;31.40;73.70
17728;DHT22;8984;49.268;12.302;2022-08-01T15:29:27;31.30;73.70
17728;DHT22;8984;49.268;12.302;2022-08-01T15:31:54;31.30;74.00
17728;DHT22;8984;49.268;12.302;2022-08-01T15:34:21;31.00;73.90
17728;DHT22;8984;49.268;12.302;2022-08-01T15:36:48;31.00;74.10
17728;DHT22;8984;49.268;12.302;2022-08-01T15:39:15;31.10;74.40
17728;DHT22;8984;49.268;12.302;2022-08-01T15:41:42;31.30;74.20
17728;DHT22;8984;49.268;12.302;2022-08-01T15:44:10;31.40;74.30
17728;DHT22;8984;49.268;12.302;2022-08-01T15:46:37;31.50;74.40
17728;DHT22;8984;49.268;12.302;2022-08-01T15:49:05;31.50;74.00